This is the latest recevied weather packets stored in our database for station/object SQ7FJB-2. If no packets are shown the sender has not sent any weather packets the latest 1 day(s).
| Time | Temp. | Humidity | Pressure | Rain* | Wind** | Luminosity | Snow |
|---|---|---|---|---|---|---|---|
| 1777984628 | 25.56° C | 25% | 1005.9 hPa | 0 mm | 1.34 m/s, 268° | - | - |
| 1777984016 | 26.67° C | 23% | 1006 hPa | 0 mm | 2.24 m/s, 210° | - | - |
| 1777983415 | 25.56° C | 25% | 1006.2 hPa | 0 mm | 0.45 m/s, 200° | - | - |
| 1777982816 | 26.11° C | 23% | 1006.2 hPa | 0 mm | 2.68 m/s, 177° | - | - |
| 1777982203 | 26.11° C | 24% | 1006.2 hPa | 0 mm | 1.79 m/s, 185° | - | - |
| 1777981603 | 26.67° C | 22% | 1006.3 hPa | 0 mm | 0.89 m/s, 186° | - | - |
| 1777978553 | 25.56° C | 24% | 1006.8 hPa | 0 mm | 0.89 m/s, 192° | - | - |
| 1777977953 | 25° C | 25% | 1007 hPa | 0 mm | 1.79 m/s, 157° | - | - |
| 1777977353 | 25° C | 26% | 1007.2 hPa | 0 mm | 0.89 m/s, 191° | - | - |
| 1777976740 | 25.56° C | 28% | 1007.1 hPa | 0 mm | 1.34 m/s, 132° | - | - |
| 1777976140 | 25.56° C | 28% | 1007.2 hPa | 0 mm | 0.89 m/s, 216° | - | - |
| 1777975528 | 25.56° C | 29% | 1007.4 hPa | 0 mm | 2.68 m/s, 210° | - | - |
| 1777974927 | 26.11° C | 29% | 1007.6 hPa | 0 mm | 0.89 m/s, 141° | - | - |
| 1777974327 | 25.56° C | 34% | 1007.6 hPa | 0 mm | 0.89 m/s, 268° | - | - |
| 1777973727 | 25° C | 31% | 1007.6 hPa | 0 mm | 0.45 m/s, 192° | - | - |
| 1777973115 | 25° C | 33% | 1007.9 hPa | 0 mm | 1.34 m/s, 180° | - | - |
| 1777971290 | 25° C | 34% | 1008.1 hPa | 0 mm | 1.34 m/s, 217° | - | - |
| 1777970689 | 25° C | 34% | 1008.2 hPa | 0 mm | 0.45 m/s, 216° | - | - |
| 1777970090 | 25° C | 32% | 1008.4 hPa | 0 mm | 0.89 m/s, 110° | - | - |
| 1777969477 | 24.44° C | 35% | 1008.4 hPa | 0 mm | 0.45 m/s, 262° | - | - |
| 1777968877 | 24.44° C | 34% | 1008.5 hPa | 0 mm | 1.79 m/s, 192° | - | - |
| 1777968274 | 17.78° C | 45% | 1009.2 hPa | 0 mm | 0.89 m/s, 146° | - | - |
| 1777960853 | 17.22° C | 46% | 1009.2 hPa | 0 mm | 0.45 m/s, 251° | - | - |
| 1777960240 | 17.22° C | 46% | 1009.3 hPa | 0 mm | 0.89 m/s, 150° | - | - |
| 1777959628 | 16.67° C | 47% | 1009.2 hPa | 0 mm | 0.45 m/s, 223° | - | - |
* Rain latest hour (hover to see other rain measurements)
** Current wind speed in m/s (hover to see current wind gust speed)